Graceville, Minnesota
Current Conditions -  °F | °C
As of 12:16 PM on Friday 19 Dec 2014 (Local Time) from KETH Reporting Station
Overcast Overcast  
Wind Chill: 18°   Ceiling: 900
Heat Index: 28°   Visibility: 7mi
Dew Point: 27°   Wind: 12mph
Humidity: 93%   Direction: 180°S
Pressure: 30.09"   Gusts: 17mph
Location:  45.57°N, 96.43°W
Report Text: KETH 191816Z AUTO 18010G15KT 7SM OVC009 M02/M03 A3009 RMK AO2
Loading
Personal Weather Stations






























Interactive Weather Map New forecast layout! Learn more

10-Day Weather Forecast

Advertisements
Track Severe Weather on mobile